Time;durP1;ratioP1;P1;durP2;ratioP2;P2;SDS_P1;SDS_P2;PMS_P1;PMS_P2;Temp;Humidity;BMP_temperature;BMP_pressure;BME280_temperature;BME280_humidity;BME280_pressure;Samples;Min_cycle;Max_cycle;Signal;HPM_P1;HPM_P2
2023/09/17 00:00:32;;;;;;;7.78;4.97;;;;;;;21.91;46.37;100849.38;4910424;29;20063;-81
2023/09/17 00:03:01;;;;;;;5.75;4.72;;;;;;;21.92;47.02;100851.09;4914124;29;20056;-81
2023/09/17 00:05:29;;;;;;;6.03;4.40;;;;;;;21.92;46.92;100850.22;4911922;29;20689;-81
2023/09/17 00:07:57;;;;;;;6.25;4.60;;;;;;;21.89;46.76;100841.16;4921080;29;20159;-81
2023/09/17 00:10:25;;;;;;;6.90;4.65;;;;;;;21.89;47.28;100848.66;4928850;29;20040;-81
2023/09/17 00:12:55;;;;;;;5.80;4.45;;;;;;;21.88;47.36;100860.88;4909558;29;20056;-82
2023/09/17 00:15:25;;;;;;;5.97;4.60;;;;;;;21.89;46.98;100868.19;4923558;29;20555;-82
2023/09/17 00:17:53;;;;;;;6.28;5.00;;;;;;;21.86;47.09;100893.66;4905064;29;20447;-82
2023/09/17 00:20:22;;;;;;;5.85;4.68;;;;;;;21.84;46.88;100932.91;4921242;29;20056;-82
2023/09/17 00:22:50;;;;;;;5.28;4.28;;;;;;;21.81;46.75;100940.78;4905212;29;20141;-81
2023/09/17 00:25:18;;;;;;;6.75;4.80;;;;;;;21.78;46.75;100928.13;4923528;29;20071;-81
2023/09/17 00:27:47;;;;;;;6.18;4.95;;;;;;;21.78;46.85;100936.47;4905701;29;20135;-82
2023/09/17 00:30:15;;;;;;;6.57;4.90;;;;;;;21.75;47.04;100942.50;4908537;29;20079;-82
2023/09/17 00:32:45;;;;;;;6.53;4.95;;;;;;;21.76;47.05;100940.56;4909975;29;20088;-82
2023/09/17 00:35:13;;;;;;;7.35;5.20;;;;;;;21.73;47.49;100924.25;4927206;29;20075;-82
2023/09/17 00:37:43;;;;;;;11.57;5.60;;;;;;;21.72;48.05;100903.88;4910491;29;20058;-83
2023/09/17 00:40:12;;;;;;;7.10;5.72;;;;;;;21.67;48.15;100912.03;4911042;29;20066;-82
2023/09/17 00:45:24;;;;;;;7.05;5.63;;;;;;;21.56;48.61;100914.50;4896787;29;20167;-82
2023/09/17 00:47:53;;;;;;;7.85;6.00;;;;;;;21.52;48.97;100902.91;4907438;29;20052;-82
2023/09/17 00:50:21;;;;;;;6.82;5.80;;;;;;;21.47;49.00;100903.53;4909402;29;20055;-83
2023/09/17 00:52:49;;;;;;;8.00;5.95;;;;;;;21.43;49.49;100902.25;4908605;29;20193;-82
2023/09/17 00:55:17;;;;;;;7.10;5.97;;;;;;;21.39;49.32;100913.97;4922675;29;20130;-82
2023/09/17 00:57:46;;;;;;;7.03;5.68;;;;;;;21.34;49.79;100908.16;4906937;29;20593;-82
2023/09/17 01:00:15;;;;;;;7.40;6.05;;;;;;;21.31;50.18;100912.22;4920176;29;20361;-83
2023/09/17 01:02:43;;;;;;;6.97;5.47;;;;;;;21.27;50.29;100902.56;4909243;29;20123;-82
2023/09/17 01:05:13;;;;;;;7.55;6.10;;;;;;;21.25;50.60;100895.44;4908529;29;20071;-82
2023/09/17 01:07:41;;;;;;;8.15;6.10;;;;;;;21.21;50.46;100892.19;4908177;29;20059;-81
2023/09/17 01:10:10;;;;;;;7.22;5.82;;;;;;;21.20;50.38;100895.16;4905712;29;20048;-83
2023/09/17 01:12:39;;;;;;;7.38;6.10;;;;;;;21.16;49.89;100889.16;4919656;29;20725;-83
2023/09/17 01:15:09;;;;;;;7.57;5.75;;;;;;;21.13;50.07;100878.44;4916421;29;20135;-82
2023/09/17 01:17:38;;;;;;;7.45;5.95;;;;;;;21.06;49.96;100878.38;4900170;29;20051;-82
2023/09/17 01:20:25;;;;;;;8.07;6.10;;;;;;;21.05;50.03;100875.81;4914757;29;20055;-83
2023/09/17 01:22:59;;;;;;;7.60;6.20;;;;;;;21.01;50.55;100872.59;4905978;29;20607;-83
2023/09/17 01:25:40;;;;;;;7.80;6.32;;;;;;;20.95;50.23;100862.25;4900348;29;20052;-82
2023/09/17 01:28:12;;;;;;;8.60;6.50;;;;;;;20.92;50.68;100857.09;4903638;29;20102;-81
2023/09/17 01:30:41;;;;;;;;;;;;;;;20.59;51.35;100862.38;4884192;29;20156;-83
2023/09/17 01:33:12;;;;;;;9.27;6.93;;;;;;;20.77;50.43;100846.09;4900629;29;20013;-82
2023/09/17 01:35:45;;;;;;;7.03;6.18;;;;;;;20.80;50.17;100842.00;4900791;29;20131;-82
2023/09/17 01:38:16;;;;;;;9.02;6.75;;;;;;;20.78;50.64;100842.22;4914589;29;20056;-81
2023/09/17 01:40:48;;;;;;;9.75;7.93;;;;;;;20.74;50.16;100840.91;4898999;29;20450;-82
2023/09/17 01:43:19;;;;;;;9.07;6.90;;;;;;;20.70;50.78;100841.50;4901558;29;20629;-83
2023/09/17 01:45:47;;;;;;;9.55;7.47;;;;;;;20.67;50.58;100847.47;4901122;29;20138;-82
2023/09/17 01:48:16;;;;;;;10.63;8.15;;;;;;;20.65;50.96;100835.69;4900962;29;20040;-82
2023/09/17 01:50:47;;;;;;;9.15;7.45;;;;;;;20.61;50.74;100831.59;4904144;29;20162;-82
2023/09/17 01:53:16;;;;;;;9.00;7.75;;;;;;;20.57;50.55;100838.59;4900273;29;20054;-81
2023/09/17 01:55:44;;;;;;;8.45;7.32;;;;;;;20.53;51.20;100840.88;4899619;29;20114;-82
2023/09/17 01:58:12;;;;;;;8.82;7.28;;;;;;;20.52;51.19;100847.53;4901491;29;20162;-82
2023/09/17 02:00:42;;;;;;;10.07;7.93;;;;;;;20.49;51.23;100847.06;4912760;29;20056;-82
2023/09/17 02:03:10;;;;;;;12.13;8.13;;;;;;;20.47;51.22;100843.63;4903964;29;20451;-81
2023/09/17 02:05:38;;;;;;;10.63;8.25;;;;;;;20.47;51.45;100843.63;4912630;29;20074;-82
2023/09/17 02:08:06;;;;;;;11.57;8.77;;;;;;;20.46;51.45;100841.88;4903092;29;20165;-82
2023/09/17 02:10:35;;;;;;;10.82;8.60;;;;;;;20.44;51.54;100846.81;4912496;29;20047;-82
2023/09/17 02:13:04;;;;;;;9.98;8.10;;;;;;;20.46;51.79;100853.00;4897275;29;20245;-82
2023/09/17 02:15:31;;;;;;;10.93;8.57;;;;;;;20.44;52.01;100849.59;4900773;29;20048;-82
2023/09/17 02:18:01;;;;;;;8.60;7.63;;;;;;;20.48;52.13;100853.69;4902708;29;20103;-82
2023/09/17 02:20:29;;;;;;;9.50;7.97;;;;;;;20.48;52.13;100859.25;4915272;29;20497;-82
2023/09/17 02:22:57;;;;;;;11.23;8.48;;;;;;;20.47;52.29;100855.59;4916235;29;20048;-82
2023/09/17 02:25:25;;;;;;;11.65;9.15;;;;;;;20.49;51.90;100845.16;4897799;29;20071;-81
2023/09/17 02:27:53;;;;;;;11.50;9.02;;;;;;;20.50;52.11;100844.09;4913714;29;20413;-82
2023/09/17 02:30:22;;;;;;;11.85;9.48;;;;;;;20.50;52.04;100841.31;4908866;29;20056;-81
2023/09/17 02:32:50;;;;;;;12.25;10.10;;;;;;;20.51;51.87;100850.50;4912120;29;20056;-81
2023/09/17 02:35:20;;;;;;;11.98;9.70;;;;;;;20.53;52.21;100853.97;4919193;29;20527;-81
2023/09/17 02:37:48;;;;;;;12.10;9.73;;;;;;;20.49;52.06;100844.28;4902796;29;20095;-82
2023/09/17 02:40:16;;;;;;;11.43;9.43;;;;;;;20.47;52.02;100836.13;4900215;29;20774;-82
2023/09/17 02:42:45;;;;;;;13.02;9.73;;;;;;;20.49;52.02;100835.94;4914687;29;20558;-82
2023/09/17 02:45:13;;;;;;;11.65;9.88;;;;;;;20.49;52.00;100830.38;4917513;29;21403;-82
2023/09/17 02:47:41;;;;;;;13.98;10.18;;;;;;;20.47;52.01;100824.16;4912663;29;20082;-81
2023/09/17 02:50:10;;;;;;;10.23;8.18;;;;;;;20.49;52.23;100824.81;4912554;29;20606;-82
2023/09/17 02:52:40;;;;;;;12.98;10.68;;;;;;;20.49;52.18;100814.56;4903943;29;20062;-82
2023/09/17 02:55:09;;;;;;;12.52;10.40;;;;;;;20.47;51.93;100813.03;4915025;29;20075;-84
2023/09/17 02:57:37;;;;;;;12.32;10.00;;;;;;;20.45;52.03;100815.19;4900699;29;20063;-82
2023/09/17 03:00:08;;;;;;;12.23;10.05;;;;;;;20.47;52.02;100808.34;4917831;29;20044;-83
2023/09/17 03:02:38;;;;;;;12.27;10.00;;;;;;;20.44;52.17;100810.69;4903757;29;20063;-83
2023/09/17 03:05:10;;;;;;;13.18;10.40;;;;;;;20.42;52.08;100802.53;4914208;29;20068;-82
2023/09/17 03:07:41;;;;;;;13.85;10.35;;;;;;;20.40;52.16;100808.28;4916603;29;20056;-82
2023/09/17 03:10:11;;;;;;;12.95;10.43;;;;;;;20.38;52.49;100813.19;4915902;29;20058;-82
2023/09/17 03:12:41;;;;;;;12.60;10.45;;;;;;;20.38;52.17;100818.75;4902179;29;20066;-82
2023/09/17 03:15:10;;;;;;;12.70;9.57;;;;;;;20.37;52.50;100819.78;4894445;29;20056;-82
2023/09/17 03:17:39;;;;;;;11.85;10.13;;;;;;;20.40;52.72;100829.66;4915276;29;20130;-82
2023/09/17 03:20:17;;;;;;;12.25;9.95;;;;;;;20.40;52.41;100829.66;4910022;29;20107;-82
2023/09/17 03:22:49;;;;;;;10.52;8.57;;;;;;;20.42;52.92;100835.88;4902879;29;20043;-83
2023/09/17 03:25:18;;;;;;;11.13;8.80;;;;;;;20.41;53.10;100834.16;4905277;29;20078;-83
2023/09/17 03:27:47;;;;;;;11.02;9.13;;;;;;;20.43;53.05;100831.19;4913529;29;20048;-83
2023/09/17 03:30:16;;;;;;;11.70;9.52;;;;;;;20.44;52.95;100830.13;4914925;29;20047;-82
2023/09/17 03:32:44;;;;;;;13.10;9.75;;;;;;;20.44;53.08;100819.88;4915623;29;20055;-83
2023/09/17 03:35:15;;;;;;;11.18;9.07;;;;;;;20.45;52.98;100820.75;4910906;29;20654;-83
2023/09/17 03:37:43;;;;;;;11.95;9.77;;;;;;;20.45;52.95;100813.22;4901530;29;20047;-84
2023/09/17 03:40:14;;;;;;;10.85;9.65;;;;;;;20.50;53.14;100824.63;4912533;29;20059;-82
2023/09/17 03:42:46;;;;;;;;;;;;;;;20.19;53.83;100824.97;4901132;29;20061;-82
2023/09/17 03:45:14;;;;;;;11.48;8.50;;;;;;;20.42;52.57;100813.66;4903943;29;19931;-82
2023/09/17 03:47:45;;;;;;;12.90;9.85;;;;;;;20.46;52.83;100812.16;4912413;29;20178;-84
2023/09/17 03:50:17;;;;;;;13.63;10.45;;;;;;;20.46;53.04;100812.16;4901513;29;20058;-81
2023/09/17 03:52:52;;;;;;;13.32;9.95;;;;;;;20.45;52.93;100806.84;4900100;29;20060;-81
2023/09/17 03:55:23;;;;;;;12.05;9.95;;;;;;;20.40;52.91;100804.63;4910854;29;20052;-81
2023/09/17 03:57:52;;;;;;;11.13;8.80;;;;;;;20.39;52.35;100809.34;4899626;29;20059;-82
2023/09/17 04:00:23;;;;;;;12.50;9.80;;;;;;;20.35;52.81;100798.84;4899640;29;20048;-83
2023/09/17 04:02:54;;;;;;;11.85;10.02;;;;;;;20.37;52.85;100802.25;4912071;29;20056;-81
2023/09/17 04:05:24;;;;;;;10.90;9.15;;;;;;;20.33;52.80;100799.03;4900793;29;20504;-84
2023/09/17 04:07:52;;;;;;;10.52;8.88;;;;;;;20.30;52.79;100793.00;4903047;29;20063;-81
2023/09/17 04:10:24;;;;;;;12.00;9.38;;;;;;;20.29;52.74;100794.91;4919494;29;20154;-81
2023/09/17 04:12:52;;;;;;;11.30;9.05;;;;;;;20.24;52.96;100797.44;4913237;29;20095;-83
2023/09/17 04:15:20;;;;;;;11.35;9.52;;;;;;;20.24;53.26;100793.81;4898992;29;20452;-83
2023/09/17 04:17:50;;;;;;;10.57;8.77;;;;;;;20.26;53.17;100800.91;4901134;29;20040;-84
2023/09/17 04:20:20;;;;;;;10.52;9.00;;;;;;;20.24;53.56;100797.44;4900132;29;20058;-84
2023/09/17 04:22:49;;;;;;;9.57;7.88;;;;;;;20.26;53.40;100803.66;4901788;29;20066;-84
2023/09/17 04:25:19;;;;;;;10.35;8.05;;;;;;;20.26;53.41;100802.81;4915074;29;20532;-84
2023/09/17 04:27:52;;;;;;;10.38;8.68;;;;;;;20.26;53.68;100798.13;4903525;29;20044;-82
2023/09/17 04:30:23;;;;;;;9.45;8.20;;;;;;;20.27;53.33;100797.06;4905710;29;20055;-84
2023/09/17 04:32:54;;;;;;;10.05;8.52;;;;;;;20.28;53.76;100797.91;4912357;29;20638;-83
2023/09/17 04:35:24;;;;;;;10.07;7.78;;;;;;;20.26;53.41;100800.03;4907966;29;20184;-85
2023/09/17 04:37:52;;;;;;;11.20;8.70;;;;;;;20.27;53.52;100799.84;4906975;29;20079;-84
2023/09/17 04:40:32;;;;;;;10.90;9.02;;;;;;;20.27;53.59;100798.97;4906995;29;20055;-82
2023/09/17 04:43:06;;;;;;;10.45;8.82;;;;;;;20.30;53.88;100795.78;4906001;29;20381;-82
2023/09/17 04:45:35;;;;;;;10.65;9.07;;;;;;;20.29;53.82;100802.41;4910921;29;20055;-82
2023/09/17 04:48:23;;;;;;;10.68;8.93;;;;;;;20.27;53.61;100791.50;4916483;29;20067;-82
2023/09/17 04:50:51;;;;;;;11.00;8.95;;;;;;;20.26;53.24;100795.34;4926791;29;20056;-82
2023/09/17 04:53:20;;;;;;;11.35;9.15;;;;;;;20.24;53.52;100794.66;4917869;29;20048;-82
2023/09/17 04:55:49;;;;;;;12.45;9.45;;;;;;;20.23;53.53;100798.50;4917538;29;20055;-81
2023/09/17 04:58:23;;;;;;;10.48;8.65;;;;;;;20.23;53.63;100789.31;4903312;29;20171;-82
2023/09/17 05:00:51;;;;;;;11.43;8.95;;;;;;;20.21;53.39;100802.53;4917475;29;20051;-85
2023/09/17 05:03:19;;;;;;;11.93;9.02;;;;;;;20.21;53.51;100806.16;4902428;29;20042;-84
2023/09/17 05:05:49;;;;;;;12.48;9.02;;;;;;;20.19;53.47;100794.41;4898112;29;20523;-83
2023/09/17 05:08:18;;;;;;;10.77;8.63;;;;;;;20.16;53.43;100797.59;4903176;29;20052;-84
2023/09/17 05:10:48;;;;;;;12.15;9.32;;;;;;;20.16;53.12;100789.25;4901566;29;20625;-84
2023/09/17 05:13:19;;;;;;;11.18;9.52;;;;;;;20.16;53.54;100797.59;4900624;29;20040;-84
2023/09/17 05:15:49;;;;;;;11.32;8.55;;;;;;;20.14;53.40;100805.25;4899281;29;20122;-83
2023/09/17 05:18:18;;;;;;;10.93;8.93;;;;;;;20.13;53.56;100806.31;4902442;29;20056;-83
2023/09/17 05:20:48;;;;;;;11.48;9.13;;;;;;;20.13;53.68;100811.84;4903747;29;20068;-83
2023/09/17 05:23:17;;;;;;;11.98;9.43;;;;;;;20.10;53.77;100798.38;4915300;29;20362;-83
2023/09/17 05:25:48;;;;;;;11.65;8.80;;;;;;;20.11;53.79;100804.81;4903946;29;20118;-83
2023/09/17 05:28:16;;;;;;;9.88;8.07;;;;;;;20.11;53.65;100807.59;4904373;29;20147;-83
2023/09/17 05:30:45;;;;;;;10.38;8.20;;;;;;;20.11;53.49;100808.44;4901877;29;20058;-83
2023/09/17 05:33:14;;;;;;;10.20;8.15;;;;;;;20.12;53.74;100812.09;4903829;29;20060;-83
2023/09/17 05:35:44;;;;;;;10.73;8.43;;;;;;;20.11;53.66;100808.44;4914002;29;20056;-83
2023/09/17 05:38:13;;;;;;;11.02;8.02;;;;;;;20.12;53.78;100812.09;4898836;29;20048;-83
2023/09/17 05:40:41;;;;;;;8.60;7.35;;;;;;;20.12;53.94;100809.31;4916647;29;20150;-83
2023/09/17 05:43:09;;;;;;;10.23;7.43;;;;;;;20.11;53.76;100816.78;4904690;29;20056;-85
2023/09/17 05:45:39;;;;;;;8.85;7.05;;;;;;;20.13;54.00;100813.78;4904399;29;20148;-84
2023/09/17 05:48:07;;;;;;;8.98;7.22;;;;;;;20.10;53.98;100815.06;4925721;29;20182;-84
2023/09/17 05:50:38;;;;;;;8.02;6.55;;;;;;;20.11;53.65;100810.34;4918638;29;20114;-84
2023/09/17 05:53:07;;;;;;;8.43;6.53;;;;;;;20.10;53.55;100819.75;4901425;29;20574;-84
2023/09/17 05:55:36;;;;;;;9.80;6.85;;;;;;;20.07;53.69;100812.66;4910510;29;20056;-84
2023/09/17 05:58:05;;;;;;;6.70;5.78;;;;;;;20.08;53.45;100819.06;4897336;29;20047;-83
2023/09/17 06:00:33;;;;;;;8.70;6.07;;;;;;;20.03;53.74;100811.34;4911354;29;20080;-85
2023/09/17 06:03:01;;;;;;;7.13;5.55;;;;;;;20.04;53.96;100821.38;4896464;29;20051;-84
2023/09/17 06:05:30;;;;;;;7.25;6.10;;;;;;;20.01;53.89;100822.66;4915035;29;20572;-83
2023/09/17 06:07:59;;;;;;;7.00;5.72;;;;;;;20.05;53.78;100811.13;4903602;29;20150;-84
2023/09/17 06:10:27;;;;;;;6.82;5.63;;;;;;;20.02;53.93;100818.81;4912892;29;20067;-84
2023/09/17 06:12:56;;;;;;;7.18;5.60;;;;;;;20.01;53.98;100810.69;4900768;29;20137;-84
2023/09/17 06:15:25;;;;;;;6.78;5.63;;;;;;;20.03;54.11;100814.13;4905882;29;20499;-84
2023/09/17 06:17:53;;;;;;;6.55;5.55;;;;;;;20.02;54.22;100820.75;4908749;29;20091;-84
2023/09/17 06:20:22;;;;;;;7.38;5.55;;;;;;;20.03;53.96;100808.56;4905926;29;20063;-84
2023/09/17 06:22:50;;;;;;;7.20;5.47;;;;;;;20.05;53.98;100820.31;4896654;29;20055;-84
2023/09/17 06:25:23;;;;;;;6.72;5.47;;;;;;;20.09;54.42;100823.59;4899348;29;20051;-84
2023/09/17 06:27:51;;;;;;;6.50;5.38;;;;;;;20.05;54.28;100814.78;4898373;29;20059;-84
2023/09/17 06:30:20;;;;;;;7.30;6.00;;;;;;;20.08;54.19;100821.84;4897546;29;20389;-84
2023/09/17 06:32:49;;;;;;;6.60;5.35;;;;;;;20.06;54.09;100818.41;4900582;29;20048;-84
2023/09/17 06:35:17;;;;;;;6.97;5.35;;;;;;;20.08;54.14;100816.31;4907618;29;20047;-84
2023/09/17 06:37:45;;;;;;;7.70;5.88;;;;;;;20.11;53.98;100829.81;4931435;29;20051;-84
2023/09/17 06:40:14;;;;;;;6.57;5.07;;;;;;;20.12;53.99;100823.19;4938220;29;20637;-84
2023/09/17 06:42:45;;;;;;;6.40;5.35;;;;;;;20.15;54.08;100825.56;4917110;29;20052;-83
2023/09/17 06:45:13;;;;;;;6.03;5.20;;;;;;;20.14;54.27;100821.91;4918671;29;20056;-84
2023/09/17 06:47:41;;;;;;;5.88;5.25;;;;;;;20.14;54.53;100824.69;4931094;29;20064;-84
2023/09/17 06:50:10;;;;;;;6.63;5.10;;;;;;;20.17;54.52;100829.88;4917139;29;20062;-84
2023/09/17 06:52:39;;;;;;;6.80;5.38;;;;;;;20.23;55.42;100822.66;4913497;29;20167;-84
2023/09/17 06:55:07;;;;;;;6.25;5.38;;;;;;;20.28;56.09;100823.75;4901244;29;20087;-84
2023/09/17 06:57:35;;;;;;;6.55;5.13;;;;;;;20.40;56.36;100826.88;4899020;29;20051;-84
2023/09/17 07:00:09;;;;;;;6.72;5.25;;;;;;;20.57;56.86;100828.31;4902440;29;20051;-84
2023/09/17 07:02:37;;;;;;;6.88;5.25;;;;;;;20.72;57.75;100829.13;4915007;29;20056;-85
2023/09/17 07:05:07;;;;;;;5.78;4.70;;;;;;;20.94;57.56;100826.31;4898256;29;20777;-84
2023/09/17 07:07:36;;;;;;;6.30;5.00;;;;;;;21.17;57.52;100831.59;4918064;29;20711;-84
2023/09/17 07:10:05;;;;;;;6.80;5.07;;;;;;;21.43;57.07;100834.56;4909985;29;20078;-85
2023/09/17 07:12:37;;;;;;;5.47;4.55;;;;;;;21.66;56.75;100823.94;4896932;29;20532;-84
2023/09/17 07:15:10;;;;;;;6.68;5.20;;;;;;;21.94;56.49;100832.19;4911178;29;20637;-84
2023/09/17 07:17:40;;;;;;;6.53;4.75;;;;;;;22.18;55.47;100827.97;4907049;29;20063;-85
2023/09/17 07:20:09;;;;;;;6.30;4.28;;;;;;;22.43;55.46;100831.88;4895721;29;20054;-85
2023/09/17 07:22:37;;;;;;;6.25;4.75;;;;;;;22.64;54.63;100831.72;4895213;29;20054;-86
2023/09/17 07:25:05;;;;;;;5.97;4.32;;;;;;;22.89;54.40;100845.00;4895864;29;20270;-85
2023/09/17 07:27:33;;;;;;;6.00;4.30;;;;;;;23.08;53.08;100832.13;4916526;29;20485;-85
2023/09/17 07:30:02;;;;;;;6.57;4.72;;;;;;;23.25;52.55;100831.44;4912292;29;20051;-86
2023/09/17 07:32:31;;;;;;;5.70;4.50;;;;;;;23.45;52.38;100830.53;4892911;29;20058;-86
2023/09/17 07:35:01;;;;;;;5.93;4.65;;;;;;;23.60;51.85;100840.38;4894128;29;20155;-85
2023/09/17 07:37:30;;;;;;;5.55;4.38;;;;;;;23.75;51.69;100832.56;4911548;29;20159;-86
2023/09/17 07:40:16;;;;;;;5.65;4.60;;;;;;;23.87;51.50;100831.91;4905644;29;20052;-85
2023/09/17 07:43:02;;;;;;;5.93;4.70;;;;;;;24.05;49.15;100846.00;4900156;29;20068;-85
2023/09/17 07:45:36;;;;;;;6.20;4.70;;;;;;;24.13;50.25;100842.94;4895869;29;20060;-85
2023/09/17 07:48:06;;;;;;;4.75;4.00;;;;;;;24.28;49.91;100831.44;4895510;29;20150;-85
2023/09/17 07:50:34;;;;;;;4.70;4.20;;;;;;;24.37;49.81;100832.91;4911506;29;20170;-85
2023/09/17 07:53:03;;;;;;;5.18;3.90;;;;;;;24.45;49.38;100836.31;4893318;29;20792;-85
2023/09/17 07:55:31;;;;;;;5.85;4.10;;;;;;;24.54;49.19;100839.69;4895111;29;20056;-85
2023/09/17 07:57:59;;;;;;;4.60;3.95;;;;;;;24.61;48.58;100834.88;4904386;29;20139;-85
2023/09/17 08:00:27;;;;;;;4.82;3.80;;;;;;;24.68;48.14;100846.88;4904404;29;20110;-85
2023/09/17 08:02:55;;;;;;;5.40;3.97;;;;;;;24.72;47.34;100842.56;4914410;29;20165;-84
2023/09/17 08:05:25;;;;;;;4.68;3.63;;;;;;;24.75;46.83;100844.88;4918967;29;20044;-86
2023/09/17 08:07:54;;;;;;;4.95;3.92;;;;;;;24.75;46.18;100847.69;4916844;29;20039;-84
2023/09/17 08:10:22;;;;;;;4.78;3.42;;;;;;;24.74;45.91;100840.38;4922588;29;20052;-85
2023/09/17 08:12:51;;;;;;;4.78;3.63;;;;;;;24.71;45.77;100846.44;4917528;29;20161;-84
2023/09/17 08:15:19;;;;;;;4.15;3.33;;;;;;;24.67;45.18;100842.38;4931880;29;20487;-84
2023/09/17 08:17:47;;;;;;;4.28;3.00;;;;;;;24.63;44.63;100849.50;4923200;29;20897;-85
2023/09/17 08:20:16;;;;;;;6.25;3.30;;;;;;;24.57;44.73;100849.56;4909305;29;20051;-86
2023/09/17 08:22:46;;;;;;;5.07;3.38;;;;;;;24.52;44.94;100848.31;4918002;29;20416;-87
2023/09/17 08:25:14;;;;;;;4.25;2.90;;;;;;;24.45;44.57;100841.91;4924448;29;20067;-86
2023/09/17 08:27:42;;;;;;;3.95;3.00;;;;;;;24.41;44.24;100842.56;4932754;29;20055;-85
2023/09/17 08:30:12;;;;;;;5.13;3.58;;;;;;;24.37;44.59;100846.91;4915423;29;20082;-83
2023/09/17 08:32:41;;;;;;;3.85;2.95;;;;;;;24.31;44.81;100851.44;4913931;29;20080;-85
2023/09/17 08:35:09;;;;;;;4.15;2.80;;;;;;;24.28;44.60;100851.03;4916926;29;20126;-84
2023/09/17 08:37:39;;;;;;;4.18;3.00;;;;;;;24.26;44.41;100853.19;4929762;29;20468;-85
2023/09/17 08:40:10;;;;;;;5.22;3.00;;;;;;;24.22;44.59;100857.53;4889543;29;20059;-84
2023/09/17 08:42:40;;;;;;;3.72;2.78;;;;;;;24.17;44.61;100854.53;4916756;29;20047;-84
2023/09/17 08:45:09;;;;;;;4.95;2.97;;;;;;;24.19;44.86;100863.56;4930725;29;20375;-85
2023/09/17 08:47:38;;;;;;;4.70;3.30;;;;;;;24.15;44.63;100860.38;4925635;29;20056;-84
2023/09/17 08:50:09;;;;;;;3.63;2.85;;;;;;;24.15;44.47;100857.56;4911502;29;20114;-85
2023/09/17 08:52:41;;;;;;;3.90;3.05;;;;;;;24.16;44.58;100862.06;4926895;29;20090;-84
2023/09/17 08:55:12;;;;;;;4.53;3.00;;;;;;;24.16;44.42;100864.84;4915290;29;20067;-84
2023/09/17 08:57:44;;;;;;;5.43;3.45;;;;;;;24.15;44.64;100864.00;4916015;29;20056;-85
2023/09/17 09:00:15;;;;;;;4.82;2.90;;;;;;;24.12;44.71;100858.88;4930183;29;20076;-85
2023/09/17 09:02:48;;;;;;;4.15;3.20;;;;;;;24.15;44.48;100860.38;4917926;29;20048;-85
2023/09/17 09:05:18;;;;;;;5.28;3.33;;;;;;;24.14;44.47;100861.44;4917674;29;20056;-82
2023/09/17 09:07:47;;;;;;;4.28;2.90;;;;;;;24.15;44.41;100868.75;4914731;29;20438;-84
2023/09/17 09:10:19;;;;;;;4.25;2.85;;;;;;;24.16;44.13;100864.84;4943784;29;20052;-83
2023/09/17 09:12:49;;;;;;;4.95;3.40;;;;;;;24.11;44.14;100854.34;4930432;29;20079;-84
2023/09/17 09:15:17;;;;;;;3.92;2.90;;;;;;;24.12;44.60;100866.41;4912944;29;20047;-83
2023/09/17 09:17:46;;;;;;;3.90;2.80;;;;;;;24.11;44.24;100859.09;4912631;29;20040;-82
2023/09/17 09:20:16;;;;;;;3.72;2.65;;;;;;;24.10;44.15;100866.59;4915649;29;20099;-82
2023/09/17 09:22:45;;;;;;;4.32;3.25;;;;;;;24.10;44.37;100869.41;4912359;29;20118;-82
2023/09/17 09:25:14;;;;;;;3.85;2.75;;;;;;;24.13;44.18;100870.91;4914126;29;20067;-82
2023/09/17 09:27:44;;;;;;;5.20;3.20;;;;;;;24.15;44.17;100882.75;4927910;29;20060;-82
2023/09/17 09:30:15;;;;;;;4.28;2.80;;;;;;;24.15;44.17;100871.56;4929409;29;20051;-85
2023/09/17 09:32:43;;;;;;;3.60;2.72;;;;;;;24.18;44.35;100864.63;4915049;29;20103;-83
2023/09/17 09:35:12;;;;;;;3.50;2.40;;;;;;;24.21;44.34;100855.81;4922944;29;20048;-83
2023/09/17 09:37:40;;;;;;;4.28;2.67;;;;;;;24.26;44.11;100868.03;4917786;29;20044;-85
2023/09/17 09:40:09;;;;;;;4.68;2.65;;;;;;;24.32;44.56;100861.53;4922328;29;20047;-83
2023/09/17 09:42:37;;;;;;;4.05;2.67;;;;;;;24.37;44.06;100869.28;4943410;29;20048;-82
2023/09/17 09:45:13;;;;;;;3.33;2.50;;;;;;;24.46;43.41;100865.13;4925126;29;20054;-83
2023/09/17 09:47:47;;;;;;;3.58;2.30;;;;;;;24.51;43.60;100857.78;4936504;29;20341;-83
2023/09/17 09:50:23;;;;;;;3.47;2.60;;;;;;;24.59;42.76;100873.44;4922973;29;20055;-82
2023/09/17 09:52:51;;;;;;;3.90;2.70;;;;;;;24.63;43.71;100880.28;4917759;29;20056;-85
2023/09/17 09:55:22;;;;;;;4.20;2.58;;;;;;;24.68;43.42;100874.88;4915064;29;20052;-83
2023/09/17 09:57:52;;;;;;;3.60;2.50;;;;;;;24.74;42.83;100879.53;4911377;29;20067;-84
2023/09/17 10:00:29;;;;;;;4.25;2.58;;;;;;;24.81;42.58;100874.75;4921208;29;20051;-85
2023/09/17 10:02:57;;;;;;;4.43;2.40;;;;;;;24.82;43.07;100870.88;4918615;29;20056;-83
2023/09/17 10:05:33;;;;;;;3.88;2.60;;;;;;;24.93;42.34;100876.81;4921354;29;20052;-84
2023/09/17 10:08:02;;;;;;;3.40;2.45;;;;;;;24.94;42.74;100870.16;4911582;29;20060;-84
2023/09/17 10:10:31;;;;;;;6.00;3.28;;;;;;;24.98;42.72;100863.03;4919737;29;20044;-85
2023/09/17 10:13:00;;;;;;;5.40;2.72;;;;;;;25.04;42.55;100862.97;4915502;29;20056;-84
2023/09/17 10:15:30;;;;;;;3.90;2.53;;;;;;;25.09;42.46;100857.53;4923865;29;20076;-84
2023/09/17 10:18:01;;;;;;;3.47;2.45;;;;;;;25.13;42.33;100857.94;4908595;29;20076;-83
2023/09/17 10:20:30;;;;;;;4.07;2.47;;;;;;;25.16;42.25;100851.84;4914376;29;20067;-84
2023/09/17 10:22:59;;;;;;;4.50;2.70;;;;;;;25.21;42.08;100846.44;4916217;29;20071;-85
2023/09/17 10:25:30;;;;;;;4.35;2.50;;;;;;;25.25;42.21;100837.31;4916411;29;20064;-83
2023/09/17 10:28:01;;;;;;;3.42;2.42;;;;;;;25.26;42.24;100832.56;4916933;29;20390;-84
2023/09/17 10:30:33;;;;;;;4.45;2.90;;;;;;;25.34;41.74;100848.22;4915886;29;20056;-84
2023/09/17 10:33:03;;;;;;;5.05;2.97;;;;;;;25.36;41.74;100843.25;4912278;29;20056;-84
2023/09/17 10:35:33;;;;;;;3.45;2.50;;;;;;;25.40;41.62;100856.53;4929373;29;20059;-84
2023/09/17 10:38:04;;;;;;;3.45;2.33;;;;;;;25.42;41.69;100845.97;4929281;29;20055;-84
2023/09/17 10:40:35;;;;;;;3.55;2.65;;;;;;;25.44;41.62;100848.53;4918777;29;20064;-84
2023/09/17 10:43:05;;;;;;;4.25;2.40;;;;;;;25.46;41.71;100838.81;4916381;29;20080;-85
2023/09/17 10:45:37;;;;;;;5.68;2.80;;;;;;;25.53;41.02;100835.97;4930830;29;20127;-85
2023/09/17 10:48:08;;;;;;;3.55;2.78;;;;;;;25.56;41.43;100841.09;4912764;29;20223;-84
2023/09/17 10:50:37;;;;;;;4.03;2.60;;;;;;;25.59;41.29;100841.50;4912991;29;20078;-84
2023/09/17 10:53:06;;;;;;;4.10;3.05;;;;;;;25.62;40.88;100835.44;4914822;29;20070;-83
2023/09/17 10:55:37;;;;;;;3.33;2.50;;;;;;;25.68;40.60;100835.56;4917036;29;20052;-84
2023/09/17 10:58:10;;;;;;;3.25;2.70;;;;;;;25.69;40.50;100838.16;4917761;29;20051;-84
2023/09/17 11:00:42;;;;;;;3.97;2.60;;;;;;;25.74;40.53;100827.06;4930156;29;20083;-84
2023/09/17 11:03:15;;;;;;;4.00;2.80;;;;;;;25.77;40.54;100837.81;4932848;29;20055;-84
2023/09/17 11:05:43;;;;;;;;;;;;;;;25.49;41.34;100826.28;4917418;29;20066;-82
2023/09/17 11:08:11;;;;;;;3.83;2.47;;;;;;;25.81;40.54;100829.78;4926303;29;19994;-83
2023/09/17 11:10:42;;;;;;;4.15;2.80;;;;;;;25.90;40.06;100831.16;4917117;29;20548;-81
2023/09/17 11:13:13;;;;;;;9.18;3.30;;;;;;;25.96;40.05;100831.09;4901217;29;20519;-82
2023/09/17 11:15:44;;;;;;;5.13;2.80;;;;;;;25.98;39.95;100828.91;4901576;29;20637;-81
2023/09/17 11:18:12;;;;;;;4.65;2.97;;;;;;;26.05;40.05;100825.16;4902642;29;20047;-80
2023/09/17 11:29:40;;;;;;;3.50;2.42;;;;;;;26.29;39.39;100850.28;4880715;23;20055;-69
2023/09/17 11:32:11;;;;;;;4.13;3.10;;;;;;;26.35;39.09;100849.34;4897485;29;20058;-69
2023/09/17 11:34:42;;;;;;;4.15;2.80;;;;;;;26.39;39.00;100844.94;4916254;29;20130;-70
2023/09/17 11:37:10;;;;;;;3.60;2.80;;;;;;;26.45;39.07;100847.91;4916312;29;20140;-70
2023/09/17 11:39:50;;;;;;;4.30;2.95;;;;;;;26.54;37.80;100838.03;4905331;29;20052;-70
2023/09/17 11:42:18;;;;;;;4.80;2.53;;;;;;;26.53;38.56;100831.56;4908736;29;20060;-70
2023/09/17 11:44:46;;;;;;;4.00;2.67;;;;;;;26.57;38.17;100826.31;4915421;29;20051;-69
2023/09/17 11:47:17;;;;;;;3.85;2.95;;;;;;;26.62;37.99;100834.91;4915458;29;20050;-70